sensor_id;sensor_type;location;lat;lon;timestamp;temperature;humidity
9808;DHT22;4943;52.550;13.462;2023-05-29T00:01:22;17.90;86.80
9808;DHT22;4943;52.550;13.462;2023-05-29T00:03:51;17.80;86.80
9808;DHT22;4943;52.550;13.462;2023-05-29T00:06:19;17.80;86.90
9808;DHT22;4943;52.550;13.462;2023-05-29T00:08:47;17.80;86.70
9808;DHT22;4943;52.550;13.462;2023-05-29T00:11:15;17.80;86.80
9808;DHT22;4943;52.550;13.462;2023-05-29T00:13:44;17.80;86.70
9808;DHT22;4943;52.550;13.462;2023-05-29T00:16:12;17.70;86.80
9808;DHT22;4943;52.550;13.462;2023-05-29T00:18:41;17.70;87.50
9808;DHT22;4943;52.550;13.462;2023-05-29T00:21:12;17.70;86.60
9808;DHT22;4943;52.550;13.462;2023-05-29T00:23:41;17.70;87.00
9808;DHT22;4943;52.550;13.462;2023-05-29T00:26:12;17.60;87.30
9808;DHT22;4943;52.550;13.462;2023-05-29T00:28:43;17.50;87.90
9808;DHT22;4943;52.550;13.462;2023-05-29T00:31:11;17.50;87.40
9808;DHT22;4943;52.550;13.462;2023-05-29T00:33:41;17.40;87.30
9808;DHT22;4943;52.550;13.462;2023-05-29T00:36:10;17.40;88.10
9808;DHT22;4943;52.550;13.462;2023-05-29T00:38:38;17.40;87.60
9808;DHT22;4943;52.550;13.462;2023-05-29T00:41:06;17.40;87.30
9808;DHT22;4943;52.550;13.462;2023-05-29T00:43:34;17.40;87.40
9808;DHT22;4943;52.550;13.462;2023-05-29T00:46:02;17.40;87.40
9808;DHT22;4943;52.550;13.462;2023-05-29T00:48:30;17.40;87.70
9808;DHT22;4943;52.550;13.462;2023-05-29T00:51:00;17.30;87.90
9808;DHT22;4943;52.550;13.462;2023-05-29T00:53:28;17.30;88.00
9808;DHT22;4943;52.550;13.462;2023-05-29T00:55:56;17.20;88.10
9808;DHT22;4943;52.550;13.462;2023-05-29T00:58:25;17.20;88.10
9808;DHT22;4943;52.550;13.462;2023-05-29T01:00:54;17.10;88.70
9808;DHT22;4943;52.550;13.462;2023-05-29T01:03:22;17.10;88.20
9808;DHT22;4943;52.550;13.462;2023-05-29T01:05:50;17.10;88.30
9808;DHT22;4943;52.550;13.462;2023-05-29T01:08:20;17.10;89.00
9808;DHT22;4943;52.550;13.462;2023-05-29T01:10:51;17.00;88.60
9808;DHT22;4943;52.550;13.462;2023-05-29T01:13:26;17.00;89.00
9808;DHT22;4943;52.550;13.462;2023-05-29T01:16:04;16.90;88.60
9808;DHT22;4943;52.550;13.462;2023-05-29T01:18:43;16.90;88.70
9808;DHT22;4943;52.550;13.462;2023-05-29T01:21:22;16.90;88.70
9808;DHT22;4943;52.550;13.462;2023-05-29T01:24:02;16.90;89.00
9808;DHT22;4943;52.550;13.462;2023-05-29T01:26:48;16.80;89.50
9808;DHT22;4943;52.550;13.462;2023-05-29T01:29:19;16.80;89.00
9808;DHT22;4943;52.550;13.462;2023-05-29T01:31:50;16.70;88.90
9808;DHT22;4943;52.550;13.462;2023-05-29T01:34:19;16.70;89.30
9808;DHT22;4943;52.550;13.462;2023-05-29T01:36:47;16.70;90.00
9808;DHT22;4943;52.550;13.462;2023-05-29T01:39:16;16.60;89.30
9808;DHT22;4943;52.550;13.462;2023-05-29T01:41:47;16.60;89.60
9808;DHT22;4943;52.550;13.462;2023-05-29T01:44:17;16.50;90.20
9808;DHT22;4943;52.550;13.462;2023-05-29T01:46:45;16.50;89.70
9808;DHT22;4943;52.550;13.462;2023-05-29T01:49:14;16.50;89.80
9808;DHT22;4943;52.550;13.462;2023-05-29T01:51:43;16.50;89.90
9808;DHT22;4943;52.550;13.462;2023-05-29T01:54:11;16.50;90.00
9808;DHT22;4943;52.550;13.462;2023-05-29T01:56:39;16.40;90.00
9808;DHT22;4943;52.550;13.462;2023-05-29T01:59:10;16.40;90.00
9808;DHT22;4943;52.550;13.462;2023-05-29T02:01:39;16.40;90.10
9808;DHT22;4943;52.550;13.462;2023-05-29T02:04:08;16.30;90.40
9808;DHT22;4943;52.550;13.462;2023-05-29T02:06:36;16.30;90.20
9808;DHT22;4943;52.550;13.462;2023-05-29T02:09:05;16.30;90.20
9808;DHT22;4943;52.550;13.462;2023-05-29T02:11:33;16.30;90.20
9808;DHT22;4943;52.550;13.462;2023-05-29T02:14:02;16.30;90.30
9808;DHT22;4943;52.550;13.462;2023-05-29T02:16:32;16.30;90.30
9808;DHT22;4943;52.550;13.462;2023-05-29T02:19:01;16.20;90.30
9808;DHT22;4943;52.550;13.462;2023-05-29T02:21:29;16.20;90.70
9808;DHT22;4943;52.550;13.462;2023-05-29T02:23:58;16.20;90.70
9808;DHT22;4943;52.550;13.462;2023-05-29T02:26:26;16.20;90.40
9808;DHT22;4943;52.550;13.462;2023-05-29T02:28:54;16.10;90.40
9808;DHT22;4943;52.550;13.462;2023-05-29T02:31:22;16.10;90.50
9808;DHT22;4943;52.550;13.462;2023-05-29T02:33:52;16.10;90.80
9808;DHT22;4943;52.550;13.462;2023-05-29T02:36:20;16.10;90.60
9808;DHT22;4943;52.550;13.462;2023-05-29T02:38:48;16.00;90.60
9808;DHT22;4943;52.550;13.462;2023-05-29T02:41:16;16.00;90.70
9808;DHT22;4943;52.550;13.462;2023-05-29T02:43:44;15.90;90.70
9808;DHT22;4943;52.550;13.462;2023-05-29T02:46:12;15.90;90.80
9808;DHT22;4943;52.550;13.462;2023-05-29T02:48:41;15.90;90.90
9808;DHT22;4943;52.550;13.462;2023-05-29T02:51:10;15.80;90.90
9808;DHT22;4943;52.550;13.462;2023-05-29T02:53:38;15.90;90.90
9808;DHT22;4943;52.550;13.462;2023-05-29T02:56:07;15.90;91.30
9808;DHT22;4943;52.550;13.462;2023-05-29T02:58:35;15.80;91.30
9808;DHT22;4943;52.550;13.462;2023-05-29T03:01:04;15.80;91.00
9808;DHT22;4943;52.550;13.462;2023-05-29T03:03:33;15.80;91.00
9808;DHT22;4943;52.550;13.462;2023-05-29T03:06:01;15.70;91.10
9808;DHT22;4943;52.550;13.462;2023-05-29T03:08:32;15.70;91.10
9808;DHT22;4943;52.550;13.462;2023-05-29T03:11:00;15.70;91.20
9808;DHT22;4943;52.550;13.462;2023-05-29T03:13:29;15.60;91.20
9808;DHT22;4943;52.550;13.462;2023-05-29T03:15:57;15.60;91.20
9808;DHT22;4943;52.550;13.462;2023-05-29T03:18:25;15.60;91.30
9808;DHT22;4943;52.550;13.462;2023-05-29T03:20:53;15.60;91.50
9808;DHT22;4943;52.550;13.462;2023-05-29T03:23:22;15.50;91.60
9808;DHT22;4943;52.550;13.462;2023-05-29T03:25:54;15.60;92.30
9808;DHT22;4943;52.550;13.462;2023-05-29T03:28:22;15.70;92.00
9808;DHT22;4943;52.550;13.462;2023-05-29T03:30:50;15.90;92.10
9808;DHT22;4943;52.550;13.462;2023-05-29T03:33:19;16.10;92.20
9808;DHT22;4943;52.550;13.462;2023-05-29T03:35:47;16.20;92.10
9808;DHT22;4943;52.550;13.462;2023-05-29T03:38:15;16.40;92.10
9808;DHT22;4943;52.550;13.462;2023-05-29T03:40:43;16.50;91.90
9808;DHT22;4943;52.550;13.462;2023-05-29T03:43:13;16.50;91.90
9808;DHT22;4943;52.550;13.462;2023-05-29T03:45:41;16.40;91.30
9808;DHT22;4943;52.550;13.462;2023-05-29T03:48:09;16.40;91.40
9808;DHT22;4943;52.550;13.462;2023-05-29T03:50:37;16.30;91.40
9808;DHT22;4943;52.550;13.462;2023-05-29T03:53:05;16.30;91.50
9808;DHT22;4943;52.550;13.462;2023-05-29T03:55:33;16.20;91.40
9808;DHT22;4943;52.550;13.462;2023-05-29T03:58:01;16.20;91.60
9808;DHT22;4943;52.550;13.462;2023-05-29T04:00:30;16.20;92.00
9808;DHT22;4943;52.550;13.462;2023-05-29T04:02:58;16.30;92.20
9808;DHT22;4943;52.550;13.462;2023-05-29T04:05:27;16.30;91.80
9808;DHT22;4943;52.550;13.462;2023-05-29T04:07:55;16.30;92.10
9808;DHT22;4943;52.550;13.462;2023-05-29T04:10:40;16.40;92.00
9808;DHT22;4943;52.550;13.462;2023-05-29T04:13:09;16.40;91.80
9808;DHT22;4943;52.550;13.462;2023-05-29T04:15:38;16.50;91.70
9808;DHT22;4943;52.550;13.462;2023-05-29T04:18:06;16.60;91.80
9808;DHT22;4943;52.550;13.462;2023-05-29T04:20:34;16.60;91.60
9808;DHT22;4943;52.550;13.462;2023-05-29T04:23:02;16.50;91.60
9808;DHT22;4943;52.550;13.462;2023-05-29T04:25:30;16.50;91.60
9808;DHT22;4943;52.550;13.462;2023-05-29T04:27:59;16.60;92.00
9808;DHT22;4943;52.550;13.462;2023-05-29T04:30:28;16.70;91.70
9808;DHT22;4943;52.550;13.462;2023-05-29T04:32:58;16.80;91.70
9808;DHT22;4943;52.550;13.462;2023-05-29T04:35:26;16.90;91.60
9808;DHT22;4943;52.550;13.462;2023-05-29T04:37:56;16.80;91.50
9808;DHT22;4943;52.550;13.462;2023-05-29T04:40:24;16.80;91.40
9808;DHT22;4943;52.550;13.462;2023-05-29T04:42:53;16.90;91.50
9808;DHT22;4943;52.550;13.462;2023-05-29T04:45:21;16.90;91.40
9808;DHT22;4943;52.550;13.462;2023-05-29T04:47:50;16.80;91.40
9808;DHT22;4943;52.550;13.462;2023-05-29T04:50:22;16.80;91.50
9808;DHT22;4943;52.550;13.462;2023-05-29T04:52:51;16.90;91.50
9808;DHT22;4943;52.550;13.462;2023-05-29T04:55:19;16.90;91.50
9808;DHT22;4943;52.550;13.462;2023-05-29T04:57:48;17.00;91.50
9808;DHT22;4943;52.550;13.462;2023-05-29T05:00:17;17.00;91.60
9808;DHT22;4943;52.550;13.462;2023-05-29T05:02:45;16.90;91.50
9808;DHT22;4943;52.550;13.462;2023-05-29T05:05:13;16.80;91.60
9808;DHT22;4943;52.550;13.462;2023-05-29T05:07:43;16.70;91.70
9808;DHT22;4943;52.550;13.462;2023-05-29T05:10:11;16.60;91.70
9808;DHT22;4943;52.550;13.462;2023-05-29T05:12:39;16.60;91.70
9808;DHT22;4943;52.550;13.462;2023-05-29T05:15:08;16.60;91.70
9808;DHT22;4943;52.550;13.462;2023-05-29T05:17:36;16.70;91.90
9808;DHT22;4943;52.550;13.462;2023-05-29T05:20:05;16.70;92.00
9808;DHT22;4943;52.550;13.462;2023-05-29T05:22:35;16.70;92.00
9808;DHT22;4943;52.550;13.462;2023-05-29T05:25:05;16.80;92.20
9808;DHT22;4943;52.550;13.462;2023-05-29T05:27:33;16.80;92.00
9808;DHT22;4943;52.550;13.462;2023-05-29T05:30:02;16.80;92.10
9808;DHT22;4943;52.550;13.462;2023-05-29T05:32:30;16.80;92.10
9808;DHT22;4943;52.550;13.462;2023-05-29T05:34:58;16.80;92.10
9808;DHT22;4943;52.550;13.462;2023-05-29T05:37:26;16.90;92.10
9808;DHT22;4943;52.550;13.462;2023-05-29T05:39:54;16.80;92.50
9808;DHT22;4943;52.550;13.462;2023-05-29T05:42:25;16.80;92.20
9808;DHT22;4943;52.550;13.462;2023-05-29T05:44:53;16.80;92.20
9808;DHT22;4943;52.550;13.462;2023-05-29T05:47:21;16.80;92.30
9808;DHT22;4943;52.550;13.462;2023-05-29T05:49:49;16.90;92.30
9808;DHT22;4943;52.550;13.462;2023-05-29T05:52:18;17.00;92.30
9808;DHT22;4943;52.550;13.462;2023-05-29T05:54:47;17.10;92.30
9808;DHT22;4943;52.550;13.462;2023-05-29T05:57:15;17.10;92.30
9808;DHT22;4943;52.550;13.462;2023-05-29T05:59:44;17.10;92.20
9808;DHT22;4943;52.550;13.462;2023-05-29T06:02:12;17.20;92.50
9808;DHT22;4943;52.550;13.462;2023-05-29T06:04:40;17.30;92.20
9808;DHT22;4943;52.550;13.462;2023-05-29T06:07:10;17.40;92.20
9808;DHT22;4943;52.550;13.462;2023-05-29T06:09:38;17.50;92.20
9808;DHT22;4943;52.550;13.462;2023-05-29T06:12:07;17.60;92.20
9808;DHT22;4943;52.550;13.462;2023-05-29T06:14:35;17.80;92.20
9808;DHT22;4943;52.550;13.462;2023-05-29T06:17:05;17.90;91.70
9808;DHT22;4943;52.550;13.462;2023-05-29T06:19:33;18.00;91.70
9808;DHT22;4943;52.550;13.462;2023-05-29T06:22:02;18.10;91.60
9808;DHT22;4943;52.550;13.462;2023-05-29T06:24:30;18.20;91.50
9808;DHT22;4943;52.550;13.462;2023-05-29T06:26:59;18.30;91.40
9808;DHT22;4943;52.550;13.462;2023-05-29T06:29:28;18.40;91.30
9808;DHT22;4943;52.550;13.462;2023-05-29T06:31:56;18.40;91.00
9808;DHT22;4943;52.550;13.462;2023-05-29T06:34:25;18.50;90.90
9808;DHT22;4943;52.550;13.462;2023-05-29T06:36:56;18.50;90.80
9808;DHT22;4943;52.550;13.462;2023-05-29T06:39:24;18.50;90.50
9808;DHT22;4943;52.550;13.462;2023-05-29T06:41:52;18.40;90.30
9808;DHT22;4943;52.550;13.462;2023-05-29T06:44:20;18.50;90.40
9808;DHT22;4943;52.550;13.462;2023-05-29T06:46:48;18.50;90.90
9808;DHT22;4943;52.550;13.462;2023-05-29T06:49:16;18.50;90.50
9808;DHT22;4943;52.550;13.462;2023-05-29T06:51:46;18.60;90.50
9808;DHT22;4943;52.550;13.462;2023-05-29T06:54:14;18.60;90.40
9808;DHT22;4943;52.550;13.462;2023-05-29T06:56:42;18.70;90.30
9808;DHT22;4943;52.550;13.462;2023-05-29T06:59:14;18.70;90.60
9808;DHT22;4943;52.550;13.462;2023-05-29T07:01:42;18.70;90.30
9808;DHT22;4943;52.550;13.462;2023-05-29T07:04:11;18.80;90.10
9808;DHT22;4943;52.550;13.462;2023-05-29T07:06:39;18.80;90.00
9808;DHT22;4943;52.550;13.462;2023-05-29T07:09:09;18.90;90.00
9808;DHT22;4943;52.550;13.462;2023-05-29T07:11:38;18.90;89.40
9808;DHT22;4943;52.550;13.462;2023-05-29T07:14:06;18.90;90.00
9808;DHT22;4943;52.550;13.462;2023-05-29T07:16:35;19.00;89.10
9808;DHT22;4943;52.550;13.462;2023-05-29T07:19:03;19.00;88.60
9808;DHT22;4943;52.550;13.462;2023-05-29T07:21:31;19.00;89.30
9808;DHT22;4943;52.550;13.462;2023-05-29T07:23:59;19.00;88.50
9808;DHT22;4943;52.550;13.462;2023-05-29T07:26:29;19.10;89.00
9808;DHT22;4943;52.550;13.462;2023-05-29T07:28:57;19.00;88.00
9808;DHT22;4943;52.550;13.462;2023-05-29T07:31:25;19.00;87.60
9808;DHT22;4943;52.550;13.462;2023-05-29T07:33:54;19.00;86.90
9808;DHT22;4943;52.550;13.462;2023-05-29T07:36:22;19.10;86.80
9808;DHT22;4943;52.550;13.462;2023-05-29T07:38:50;19.10;86.30
9808;DHT22;4943;52.550;13.462;2023-05-29T07:41:20;19.20;88.00
9808;DHT22;4943;52.550;13.462;2023-05-29T07:43:49;19.40;87.90
9808;DHT22;4943;52.550;13.462;2023-05-29T07:46:19;19.60;88.10
9808;DHT22;4943;52.550;13.462;2023-05-29T07:48:47;19.80;88.40
9808;DHT22;4943;52.550;13.462;2023-05-29T07:51:15;20.00;86.80
9808;DHT22;4943;52.550;13.462;2023-05-29T07:53:44;20.10;86.30
9808;DHT22;4943;52.550;13.462;2023-05-29T07:56:12;20.20;87.60
9808;DHT22;4943;52.550;13.462;2023-05-29T07:58:41;20.20;85.90
9808;DHT22;4943;52.550;13.462;2023-05-29T08:01:10;20.10;85.60
9808;DHT22;4943;52.550;13.462;2023-05-29T08:03:40;20.00;85.90
9808;DHT22;4943;52.550;13.462;2023-05-29T08:06:09;20.00;86.00
9808;DHT22;4943;52.550;13.462;2023-05-29T08:08:40;19.90;85.90
9808;DHT22;4943;52.550;13.462;2023-05-29T08:11:08;19.90;86.30
9808;DHT22;4943;52.550;13.462;2023-05-29T08:13:36;19.90;86.50
9808;DHT22;4943;52.550;13.462;2023-05-29T08:16:04;19.90;86.70
9808;DHT22;4943;52.550;13.462;2023-05-29T08:18:34;19.90;86.20
9808;DHT22;4943;52.550;13.462;2023-05-29T08:21:03;19.90;86.20
9808;DHT22;4943;52.550;13.462;2023-05-29T08:23:32;19.90;85.10
9808;DHT22;4943;52.550;13.462;2023-05-29T08:26:01;19.80;85.20
9808;DHT22;4943;52.550;13.462;2023-05-29T08:28:30;19.80;85.90
9808;DHT22;4943;52.550;13.462;2023-05-29T08:30:58;19.80;85.30
9808;DHT22;4943;52.550;13.462;2023-05-29T08:33:26;19.80;85.50
9808;DHT22;4943;52.550;13.462;2023-05-29T08:35:57;19.80;85.30
9808;DHT22;4943;52.550;13.462;2023-05-29T08:38:25;19.80;84.90
9808;DHT22;4943;52.550;13.462;2023-05-29T08:40:54;19.80;85.50
9808;DHT22;4943;52.550;13.462;2023-05-29T08:43:24;19.80;84.50
9808;DHT22;4943;52.550;13.462;2023-05-29T08:45:54;19.80;84.50
9808;DHT22;4943;52.550;13.462;2023-05-29T08:48:23;19.80;84.80
9808;DHT22;4943;52.550;13.462;2023-05-29T08:50:53;19.90;85.10
9808;DHT22;4943;52.550;13.462;2023-05-29T08:53:24;19.90;84.20
9808;DHT22;4943;52.550;13.462;2023-05-29T08:55:53;19.90;84.10
9808;DHT22;4943;52.550;13.462;2023-05-29T08:58:22;19.90;84.50
9808;DHT22;4943;52.550;13.462;2023-05-29T09:00:51;19.90;84.50
9808;DHT22;4943;52.550;13.462;2023-05-29T09:03:19;19.90;84.20
9808;DHT22;4943;52.550;13.462;2023-05-29T09:05:49;19.90;84.40
9808;DHT22;4943;52.550;13.462;2023-05-29T09:08:17;19.90;84.50
9808;DHT22;4943;52.550;13.462;2023-05-29T09:10:47;20.00;85.10
9808;DHT22;4943;52.550;13.462;2023-05-29T09:13:15;20.10;85.30
9808;DHT22;4943;52.550;13.462;2023-05-29T09:15:43;20.20;84.80
9808;DHT22;4943;52.550;13.462;2023-05-29T09:18:12;20.30;84.80
9808;DHT22;4943;52.550;13.462;2023-05-29T09:20:40;20.40;85.60
9808;DHT22;4943;52.550;13.462;2023-05-29T09:23:09;20.30;84.20
9808;DHT22;4943;52.550;13.462;2023-05-29T09:25:40;20.40;84.70
9808;DHT22;4943;52.550;13.462;2023-05-29T09:28:11;20.50;85.10
9808;DHT22;4943;52.550;13.462;2023-05-29T09:30:40;20.60;85.00
9808;DHT22;4943;52.550;13.462;2023-05-29T09:33:10;20.80;85.00
9808;DHT22;4943;52.550;13.462;2023-05-29T09:35:39;21.00;85.00
9808;DHT22;4943;52.550;13.462;2023-05-29T09:38:08;21.30;84.40
9808;DHT22;4943;52.550;13.462;2023-05-29T09:40:39;21.50;84.10
9808;DHT22;4943;52.550;13.462;2023-05-29T09:43:12;21.60;84.10
9808;DHT22;4943;52.550;13.462;2023-05-29T09:45:41;21.60;83.80
9808;DHT22;4943;52.550;13.462;2023-05-29T09:48:12;21.60;83.20
9808;DHT22;4943;52.550;13.462;2023-05-29T09:50:41;21.70;83.00
9808;DHT22;4943;52.550;13.462;2023-05-29T09:53:18;21.70;83.20
9808;DHT22;4943;52.550;13.462;2023-05-29T09:55:47;21.90;82.60
9808;DHT22;4943;52.550;13.462;2023-05-29T09:58:17;22.00;82.70
9808;DHT22;4943;52.550;13.462;2023-05-29T10:00:46;22.10;82.70
9808;DHT22;4943;52.550;13.462;2023-05-29T10:03:15;22.10;80.90
9808;DHT22;4943;52.550;13.462;2023-05-29T10:05:50;22.00;80.60
9808;DHT22;4943;52.550;13.462;2023-05-29T10:08:19;22.10;81.10
9808;DHT22;4943;52.550;13.462;2023-05-29T10:10:59;22.10;79.40
9808;DHT22;4943;52.550;13.462;2023-05-29T10:13:32;22.20;80.40
9808;DHT22;4943;52.550;13.462;2023-05-29T10:16:03;22.30;79.50
9808;DHT22;4943;52.550;13.462;2023-05-29T10:18:38;22.50;79.70
9808;DHT22;4943;52.550;13.462;2023-05-29T10:21:07;22.60;79.00
9808;DHT22;4943;52.550;13.462;2023-05-29T10:23:37;22.60;78.60
9808;DHT22;4943;52.550;13.462;2023-05-29T10:26:12;22.60;78.20
9808;DHT22;4943;52.550;13.462;2023-05-29T10:28:48;22.50;78.60
9808;DHT22;4943;52.550;13.462;2023-05-29T10:31:24;22.40;77.80
9808;DHT22;4943;52.550;13.462;2023-05-29T10:34:07;22.30;78.30
9808;DHT22;4943;52.550;13.462;2023-05-29T10:36:41;22.30;79.00
9808;DHT22;4943;52.550;13.462;2023-05-29T10:39:10;22.50;79.50
9808;DHT22;4943;52.550;13.462;2023-05-29T10:41:39;22.70;79.60
9808;DHT22;4943;52.550;13.462;2023-05-29T10:44:39;23.00;79.30
9808;DHT22;4943;52.550;13.462;2023-05-29T10:47:08;23.20;77.60
9808;DHT22;4943;52.550;13.462;2023-05-29T10:49:39;23.20;77.40
9808;DHT22;4943;52.550;13.462;2023-05-29T10:52:18;23.20;77.30
9808;DHT22;4943;52.550;13.462;2023-05-29T10:54:53;23.20;77.30
9808;DHT22;4943;52.550;13.462;2023-05-29T10:57:22;23.10;77.00
9808;DHT22;4943;52.550;13.462;2023-05-29T11:00:06;23.00;77.00
9808;DHT22;4943;52.550;13.462;2023-05-29T11:02:40;23.00;77.50
9808;DHT22;4943;52.550;13.462;2023-05-29T11:05:22;22.90;76.50
9808;DHT22;4943;52.550;13.462;2023-05-29T11:08:01;22.80;75.80
9808;DHT22;4943;52.550;13.462;2023-05-29T11:10:54;22.60;76.80
9808;DHT22;4943;52.550;13.462;2023-05-29T11:13:24;22.60;76.80
9808;DHT22;4943;52.550;13.462;2023-05-29T11:16:13;22.70;77.90
9808;DHT22;4943;52.550;13.462;2023-05-29T11:18:42;22.90;77.40
9808;DHT22;4943;52.550;13.462;2023-05-29T11:21:22;23.10;76.10
9808;DHT22;4943;52.550;13.462;2023-05-29T11:23:52;23.20;75.70
9808;DHT22;4943;52.550;13.462;2023-05-29T11:26:22;23.20;76.00
9808;DHT22;4943;52.550;13.462;2023-05-29T11:28:50;23.10;75.10
9808;DHT22;4943;52.550;13.462;2023-05-29T11:31:20;22.90;75.10
9808;DHT22;4943;52.550;13.462;2023-05-29T11:33:50;22.70;75.80
9808;DHT22;4943;52.550;13.462;2023-05-29T11:36:21;22.70;76.00
9808;DHT22;4943;52.550;13.462;2023-05-29T11:38:51;22.60;76.10
9808;DHT22;4943;52.550;13.462;2023-05-29T11:41:19;22.70;76.70
9808;DHT22;4943;52.550;13.462;2023-05-29T11:43:56;22.90;77.20
9808;DHT22;4943;52.550;13.462;2023-05-29T11:46:26;23.20;76.70
9808;DHT22;4943;52.550;13.462;2023-05-29T11:48:57;23.50;77.10
9808;DHT22;4943;52.550;13.462;2023-05-29T11:51:26;23.80;76.70
9808;DHT22;4943;52.550;13.462;2023-05-29T11:53:54;24.00;75.40
9808;DHT22;4943;52.550;13.462;2023-05-29T11:56:25;24.00;74.40
9808;DHT22;4943;52.550;13.462;2023-05-29T11:58:54;23.80;74.60
9808;DHT22;4943;52.550;13.462;2023-05-29T12:01:24;23.60;74.80
9808;DHT22;4943;52.550;13.462;2023-05-29T12:03:54;23.50;75.10
9808;DHT22;4943;52.550;13.462;2023-05-29T12:06:32;23.50;75.00
9808;DHT22;4943;52.550;13.462;2023-05-29T12:09:01;23.20;75.10
9808;DHT22;4943;52.550;13.462;2023-05-29T12:11:30;23.10;75.70
9808;DHT22;4943;52.550;13.462;2023-05-29T12:14:01;23.10;75.60
9808;DHT22;4943;52.550;13.462;2023-05-29T12:16:31;22.90;76.10
9808;DHT22;4943;52.550;13.462;2023-05-29T12:19:03;22.90;76.40
9808;DHT22;4943;52.550;13.462;2023-05-29T12:21:31;23.00;76.70
9808;DHT22;4943;52.550;13.462;2023-05-29T12:23:59;23.10;76.50
9808;DHT22;4943;52.550;13.462;2023-05-29T12:26:30;23.20;76.30
9808;DHT22;4943;52.550;13.462;2023-05-29T12:29:02;23.30;75.40
9808;DHT22;4943;52.550;13.462;2023-05-29T12:31:31;23.30;75.70
9808;DHT22;4943;52.550;13.462;2023-05-29T12:34:07;23.30;75.80
9808;DHT22;4943;52.550;13.462;2023-05-29T12:36:35;23.40;75.80
9808;DHT22;4943;52.550;13.462;2023-05-29T12:39:07;23.50;76.70
9808;DHT22;4943;52.550;13.462;2023-05-29T12:41:37;23.70;76.00
9808;DHT22;4943;52.550;13.462;2023-05-29T12:44:06;23.90;75.50
9808;DHT22;4943;52.550;13.462;2023-05-29T12:46:36;24.00;75.00
9808;DHT22;4943;52.550;13.462;2023-05-29T12:49:16;24.00;74.60
9808;DHT22;4943;52.550;13.462;2023-05-29T12:51:47;24.10;74.60
9808;DHT22;4943;52.550;13.462;2023-05-29T12:54:16;24.20;74.70
9808;DHT22;4943;52.550;13.462;2023-05-29T12:56:44;24.30;73.60
9808;DHT22;4943;52.550;13.462;2023-05-29T12:59:13;24.40;73.90
9808;DHT22;4943;52.550;13.462;2023-05-29T13:01:42;24.50;73.90
9808;DHT22;4943;52.550;13.462;2023-05-29T13:04:10;24.70;73.10
9808;DHT22;4943;52.550;13.462;2023-05-29T13:06:40;24.70;72.60
9808;DHT22;4943;52.550;13.462;2023-05-29T13:09:09;24.60;72.50
9808;DHT22;4943;52.550;13.462;2023-05-29T13:11:37;24.50;72.00
9808;DHT22;4943;52.550;13.462;2023-05-29T13:14:05;24.30;72.70
9808;DHT22;4943;52.550;13.462;2023-05-29T13:16:33;24.20;72.60
9808;DHT22;4943;52.550;13.462;2023-05-29T13:19:02;24.20;72.70
9808;DHT22;4943;52.550;13.462;2023-05-29T13:21:30;24.30;73.30
9808;DHT22;4943;52.550;13.462;2023-05-29T13:24:00;24.40;72.50
9808;DHT22;4943;52.550;13.462;2023-05-29T13:26:29;24.60;72.30
9808;DHT22;4943;52.550;13.462;2023-05-29T13:28:57;24.70;72.80
9808;DHT22;4943;52.550;13.462;2023-05-29T13:31:25;25.00;72.80
9808;DHT22;4943;52.550;13.462;2023-05-29T13:33:53;25.00;71.40
9808;DHT22;4943;52.550;13.462;2023-05-29T13:36:21;25.10;71.80
9808;DHT22;4943;52.550;13.462;2023-05-29T13:38:49;25.00;71.30
9808;DHT22;4943;52.550;13.462;2023-05-29T13:41:19;24.90;71.80
9808;DHT22;4943;52.550;13.462;2023-05-29T13:43:47;24.80;72.10
9808;DHT22;4943;52.550;13.462;2023-05-29T13:46:15;24.60;72.00
9808;DHT22;4943;52.550;13.462;2023-05-29T13:48:43;24.50;72.20
9808;DHT22;4943;52.550;13.462;2023-05-29T13:51:11;24.60;72.80
9808;DHT22;4943;52.550;13.462;2023-05-29T13:53:39;24.60;73.30
9808;DHT22;4943;52.550;13.462;2023-05-29T13:56:07;24.60;72.90
9808;DHT22;4943;52.550;13.462;2023-05-29T13:58:36;24.60;72.80
9808;DHT22;4943;52.550;13.462;2023-05-29T14:01:04;24.50;72.60
9808;DHT22;4943;52.550;13.462;2023-05-29T14:03:33;24.50;73.70
9808;DHT22;4943;52.550;13.462;2023-05-29T14:06:01;24.40;72.90
9808;DHT22;4943;52.550;13.462;2023-05-29T14:08:31;24.30;72.80
9808;DHT22;4943;52.550;13.462;2023-05-29T14:10:59;24.20;72.30
9808;DHT22;4943;52.550;13.462;2023-05-29T14:13:28;24.00;73.20
9808;DHT22;4943;52.550;13.462;2023-05-29T14:15:57;23.90;72.90
9808;DHT22;4943;52.550;13.462;2023-05-29T14:18:26;23.80;72.80
9808;DHT22;4943;52.550;13.462;2023-05-29T14:20:54;23.80;73.80
9808;DHT22;4943;52.550;13.462;2023-05-29T14:23:22;23.80;73.20
9808;DHT22;4943;52.550;13.462;2023-05-29T14:25:50;23.80;73.10
9808;DHT22;4943;52.550;13.462;2023-05-29T14:28:19;23.80;73.10
9808;DHT22;4943;52.550;13.462;2023-05-29T14:30:47;23.80;73.10
9808;DHT22;4943;52.550;13.462;2023-05-29T14:33:17;23.80;72.40
9808;DHT22;4943;52.550;13.462;2023-05-29T14:35:45;23.70;71.90
9808;DHT22;4943;52.550;13.462;2023-05-29T14:38:13;23.80;72.70
9808;DHT22;4943;52.550;13.462;2023-05-29T14:40:41;23.80;72.50
9808;DHT22;4943;52.550;13.462;2023-05-29T14:43:12;23.80;72.90
9808;DHT22;4943;52.550;13.462;2023-05-29T14:45:41;24.00;73.60
9808;DHT22;4943;52.550;13.462;2023-05-29T14:48:09;24.20;73.40
9808;DHT22;4943;52.550;13.462;2023-05-29T14:50:39;24.40;72.90
9808;DHT22;4943;52.550;13.462;2023-05-29T14:53:07;24.50;72.70
9808;DHT22;4943;52.550;13.462;2023-05-29T14:55:35;24.70;70.90
9808;DHT22;4943;52.550;13.462;2023-05-29T14:58:04;24.70;70.80
9808;DHT22;4943;52.550;13.462;2023-05-29T15:00:34;24.70;71.90
9808;DHT22;4943;52.550;13.462;2023-05-29T15:03:02;24.80;71.90
9808;DHT22;4943;52.550;13.462;2023-05-29T15:05:30;24.90;70.80
9808;DHT22;4943;52.550;13.462;2023-05-29T15:07:59;25.10;70.90
9808;DHT22;4943;52.550;13.462;2023-05-29T15:10:28;25.30;71.40
9808;DHT22;4943;52.550;13.462;2023-05-29T15:12:56;25.40;71.70
9808;DHT22;4943;52.550;13.462;2023-05-29T15:15:24;25.50;70.90
9808;DHT22;4943;52.550;13.462;2023-05-29T15:18:12;25.50;69.40
9808;DHT22;4943;52.550;13.462;2023-05-29T15:20:40;25.40;69.40
9808;DHT22;4943;52.550;13.462;2023-05-29T15:23:10;25.40;69.70
9808;DHT22;4943;52.550;13.462;2023-05-29T15:25:38;25.50;70.20
9808;DHT22;4943;52.550;13.462;2023-05-29T15:28:06;25.60;69.30
9808;DHT22;4943;52.550;13.462;2023-05-29T15:30:34;25.90;71.60
9808;DHT22;4943;52.550;13.462;2023-05-29T15:33:02;26.30;69.60
9808;DHT22;4943;52.550;13.462;2023-05-29T15:35:34;26.60;69.90
9808;DHT22;4943;52.550;13.462;2023-05-29T15:38:02;26.80;68.10
9808;DHT22;4943;52.550;13.462;2023-05-29T15:40:31;27.00;68.70
9808;DHT22;4943;52.550;13.462;2023-05-29T15:42:59;27.30;68.40
9808;DHT22;4943;52.550;13.462;2023-05-29T15:45:28;27.50;68.70
9808;DHT22;4943;52.550;13.462;2023-05-29T15:47:56;27.80;67.50
9808;DHT22;4943;52.550;13.462;2023-05-29T15:50:25;27.90;66.70
9808;DHT22;4943;52.550;13.462;2023-05-29T15:52:53;28.10;67.20
9808;DHT22;4943;52.550;13.462;2023-05-29T15:55:22;28.10;66.90
9808;DHT22;4943;52.550;13.462;2023-05-29T15:57:52;28.10;66.10
9808;DHT22;4943;52.550;13.462;2023-05-29T16:00:20;28.10;66.40